createdAt,value
2018-11-26T00:00:30.541Z,1007.67
2018-11-26T00:01:30.555Z,1007.66
2018-11-26T00:02:30.569Z,1007.63
2018-11-26T00:03:30.582Z,1007.67
2018-11-26T00:04:30.595Z,1007.70
2018-11-26T00:05:30.610Z,1007.69
2018-11-26T00:06:30.622Z,1007.68
2018-11-26T00:07:30.637Z,1007.67
2018-11-26T00:08:30.649Z,1007.74
2018-11-26T00:09:30.662Z,1007.64
2018-11-26T00:10:30.676Z,1007.67
2018-11-26T00:11:30.694Z,1007.65
2018-11-26T00:12:30.702Z,1007.71
2018-11-26T00:13:30.717Z,1007.71
2018-11-26T00:14:30.731Z,1007.65
2018-11-26T00:15:30.753Z,1007.64
2018-11-26T00:16:30.759Z,1007.63
2018-11-26T00:17:30.771Z,1007.62
2018-11-26T00:18:30.772Z,1007.60
2018-11-26T00:19:30.786Z,1007.62
2018-11-26T00:20:30.813Z,1007.62
2018-11-26T00:21:30.814Z,1007.64
2018-11-26T00:22:30.827Z,1007.63
2018-11-26T00:23:30.853Z,1007.61
2018-11-26T00:24:30.854Z,1007.58
2018-11-26T00:25:30.866Z,1007.58
2018-11-26T00:26:30.883Z,1007.61
2018-11-26T00:27:30.893Z,1007.63
2018-11-26T00:28:30.907Z,1007.59
2018-11-26T00:29:30.920Z,1007.64
2018-11-26T00:30:30.937Z,1007.62
2018-11-26T00:31:30.947Z,1007.59
2018-11-26T00:32:30.954Z,1007.61
2018-11-26T00:33:30.963Z,1007.63
2018-11-26T00:34:30.974Z,1007.61
2018-11-26T00:35:30.989Z,1007.64
2018-11-26T00:36:31.003Z,1007.64
2018-11-26T00:37:31.021Z,1007.59
2018-11-26T00:38:31.030Z,1007.61
2018-11-26T00:39:31.043Z,1007.61
2018-11-26T00:40:31.056Z,1007.60
2018-11-26T00:41:31.070Z,1007.60
2018-11-26T00:42:31.087Z,1007.56
2018-11-26T00:43:31.098Z,1007.57
2018-11-26T00:44:31.098Z,1007.56
2018-11-26T00:45:31.111Z,1007.63
2018-11-26T00:46:31.126Z,1007.60
2018-11-26T00:47:31.139Z,1007.57
2018-11-26T00:48:31.152Z,1007.66
2018-11-26T00:49:31.165Z,1007.65
2018-11-26T00:50:31.182Z,1007.70
2018-11-26T00:51:31.197Z,1007.64
2018-11-26T00:52:31.196Z,1007.60
2018-11-26T00:53:31.208Z,1007.65
2018-11-26T00:54:31.222Z,1007.63
2018-11-26T00:55:31.235Z,1007.63
2018-11-26T00:56:31.247Z,1007.60
2018-11-26T00:57:31.262Z,1007.62
2018-11-26T00:58:31.279Z,1007.57
2018-11-26T00:59:31.291Z,1007.63
2018-11-26T01:00:31.302Z,1007.60
2018-11-26T01:01:31.303Z,1007.57
2018-11-26T01:02:31.320Z,1007.64
2018-11-26T01:03:31.329Z,1007.64
2018-11-26T01:04:31.345Z,1007.64
2018-11-26T01:05:31.357Z,1007.66
2018-11-26T01:06:31.371Z,1007.63
2018-11-26T01:07:31.386Z,1007.66
2018-11-26T01:08:31.400Z,1007.66
2018-11-26T01:09:31.410Z,1007.63
2018-11-26T01:10:31.412Z,1007.67
2018-11-26T01:11:31.426Z,1007.66
2018-11-26T01:12:31.439Z,1007.67
2018-11-26T01:13:31.457Z,1007.65
2018-11-26T01:14:31.469Z,1007.67
2018-11-26T01:15:31.480Z,1007.66
2018-11-26T01:16:31.493Z,1007.69
2018-11-26T01:17:31.507Z,1007.70
2018-11-26T01:18:31.507Z,1007.68
2018-11-26T01:19:31.520Z,1007.67
2018-11-26T01:20:31.535Z,1007.68
2018-11-26T01:21:31.550Z,1007.69
2018-11-26T01:22:31.563Z,1007.65
2018-11-26T01:23:31.574Z,1007.60
2018-11-26T01:24:31.577Z,1007.60
2018-11-26T01:25:31.593Z,1007.63
2018-11-26T01:26:31.605Z,1007.62
2018-11-26T01:27:31.618Z,1007.63
2018-11-26T01:28:31.631Z,1007.59
2018-11-26T01:29:31.644Z,1007.63
2018-11-26T01:30:31.658Z,1007.66
2018-11-26T01:31:31.658Z,1007.64
2018-11-26T01:32:31.672Z,1007.68
2018-11-26T01:33:31.685Z,1007.68
2018-11-26T01:34:31.701Z,1007.68
2018-11-26T01:35:31.712Z,1007.69
2018-11-26T01:36:31.727Z,1007.68
2018-11-26T01:37:31.739Z,1007.66
2018-11-26T01:38:31.754Z,1007.68
2018-11-26T01:39:31.754Z,1007.67
2018-11-26T01:40:31.767Z,1007.63
2018-11-26T01:41:31.782Z,1007.61
2018-11-26T01:42:31.796Z,1007.65
2018-11-26T01:43:31.808Z,1007.64
2018-11-26T01:44:31.809Z,1007.64
2018-11-26T01:45:31.823Z,1007.62
2018-11-26T01:46:31.838Z,1007.62
2018-11-26T01:47:31.850Z,1007.62
2018-11-26T01:48:31.864Z,1007.65
2018-11-26T01:49:31.876Z,1007.67
2018-11-26T01:50:31.877Z,1007.66
2018-11-26T01:51:31.891Z,1007.60
2018-11-26T01:52:31.953Z,1007.62
2018-11-26T01:53:31.919Z,1007.66
2018-11-26T01:54:31.933Z,1007.58
2018-11-26T01:55:31.934Z,1007.59
2018-11-26T01:56:31.949Z,1007.62
2018-11-26T01:57:31.961Z,1007.59
2018-11-26T01:58:31.973Z,1007.53
2018-11-26T01:59:31.986Z,1007.52
2018-11-26T02:00:32.002Z,1007.51
2018-11-26T02:01:32.001Z,1007.47
2018-11-26T02:02:32.015Z,1007.44
2018-11-26T02:03:32.029Z,1007.42
2018-11-26T02:04:32.041Z,1007.39
2018-11-26T02:05:32.063Z,1007.33
2018-11-26T02:06:32.070Z,1007.31
2018-11-26T02:07:32.071Z,1007.33
2018-11-26T02:08:32.083Z,1007.25
2018-11-26T02:09:32.096Z,1007.33
2018-11-26T02:10:32.112Z,1007.28
2018-11-26T02:11:32.123Z,1007.31
2018-11-26T02:12:32.125Z,1007.32
2018-11-26T02:13:32.142Z,1007.33
2018-11-26T02:14:32.155Z,1007.30
2018-11-26T02:15:32.166Z,1007.32
2018-11-26T02:16:32.179Z,1007.27
2018-11-26T02:17:32.193Z,1007.27
2018-11-26T02:18:32.194Z,1007.28
2018-11-26T02:19:32.220Z,1007.28
2018-11-26T02:20:32.221Z,1007.25
2018-11-26T02:21:32.236Z,1007.25
2018-11-26T02:22:32.248Z,1007.24
2018-11-26T02:23:32.249Z,1007.26
2018-11-26T02:24:32.262Z,1007.28
2018-11-26T02:25:32.281Z,1007.31
2018-11-26T02:26:32.290Z,1007.28
2018-11-26T02:27:32.303Z,1007.26
2018-11-26T02:28:32.304Z,1007.29
2018-11-26T02:29:32.317Z,1007.30
2018-11-26T02:30:32.331Z,1007.24
2018-11-26T02:31:32.344Z,1007.19
2018-11-26T02:32:32.358Z,1007.17
2018-11-26T02:33:32.378Z,1007.13
2018-11-26T02:34:32.372Z,1007.15
2018-11-26T02:35:32.387Z,1007.12
2018-11-26T02:36:32.403Z,1007.14
2018-11-26T02:37:32.417Z,1007.18
2018-11-26T02:38:32.426Z,1007.16
2018-11-26T02:39:32.427Z,1007.15
2018-11-26T02:40:32.443Z,1007.19
2018-11-26T02:41:32.469Z,1007.19
2018-11-26T02:42:32.469Z,1007.18
2018-11-26T02:43:32.481Z,1007.19
2018-11-26T02:44:32.483Z,1007.19
2018-11-26T02:45:32.500Z,1007.18
2018-11-26T02:46:32.509Z,1007.17
2018-11-26T02:47:32.527Z,1007.21
2018-11-26T02:48:32.537Z,1007.22
2018-11-26T02:49:32.541Z,1007.21
2018-11-26T02:50:32.552Z,1007.22
2018-11-26T02:51:32.566Z,1007.17
2018-11-26T02:52:32.582Z,1007.17
2018-11-26T02:53:32.591Z,1007.19
2018-11-26T02:54:32.594Z,1007.18
2018-11-26T02:55:32.634Z,1007.15
2018-11-26T02:56:32.621Z,1007.15
2018-11-26T02:57:32.634Z,1007.21
2018-11-26T02:58:32.646Z,1007.12
2018-11-26T02:59:32.660Z,1007.17
2018-11-26T03:00:32.662Z,1007.21
2018-11-26T03:01:32.688Z,1007.16
2018-11-26T03:02:32.689Z,1007.18
2018-11-26T03:03:32.701Z,1007.15
2018-11-26T03:04:32.716Z,1007.22
2018-11-26T03:05:32.732Z,1007.17
2018-11-26T03:06:32.730Z,1007.14
2018-11-26T03:07:32.744Z,1007.16
2018-11-26T03:08:32.758Z,1007.12
2018-11-26T03:09:32.772Z,1007.11
2018-11-26T03:10:32.784Z,1007.09
2018-11-26T03:11:32.786Z,1007.13
2018-11-26T03:12:32.798Z,1007.15
2018-11-26T03:13:32.812Z,1007.22
2018-11-26T03:14:32.826Z,1007.21
2018-11-26T03:15:32.840Z,1007.18
2018-11-26T03:16:32.855Z,1007.26
2018-11-26T03:17:32.865Z,1007.29
2018-11-26T03:18:32.867Z,1007.27
2018-11-26T03:19:32.881Z,1007.27
2018-11-26T03:20:32.894Z,1007.28
2018-11-26T03:21:32.908Z,1007.36
2018-11-26T03:22:32.922Z,1007.34
2018-11-26T03:23:32.924Z,1007.35
2018-11-26T03:24:32.936Z,1007.32
2018-11-26T03:25:32.951Z,1007.32
2018-11-26T03:26:32.963Z,1007.36
2018-11-26T03:27:33.006Z,1007.35
2018-11-26T03:28:32.994Z,1007.37
2018-11-26T03:29:32.993Z,1007.35
2018-11-26T03:30:33.019Z,1007.42
2018-11-26T03:31:33.019Z,1007.38
2018-11-26T03:32:33.037Z,1007.44
2018-11-26T03:33:33.046Z,1007.44
2018-11-26T03:34:33.058Z,1007.40
2018-11-26T03:35:33.063Z,1007.44
2018-11-26T03:36:33.073Z,1007.39
2018-11-26T03:37:33.087Z,1007.40
2018-11-26T03:38:33.101Z,1007.50
2018-11-26T03:39:33.113Z,1007.44
2018-11-26T03:40:33.128Z,1007.41
2018-11-26T03:41:33.167Z,1007.47
2018-11-26T03:42:33.156Z,1007.51
2018-11-26T03:43:33.155Z,1007.46
2018-11-26T03:44:33.169Z,1007.47
2018-11-26T03:45:33.182Z,1007.45
2018-11-26T03:46:33.194Z,1007.42
2018-11-26T03:47:33.199Z,1007.42
2018-11-26T03:48:33.211Z,1007.41
2018-11-26T03:49:33.227Z,1007.39
2018-11-26T03:50:33.248Z,1007.39
2018-11-26T03:51:33.250Z,1007.41
2018-11-26T03:52:33.252Z,1007.39
2018-11-26T03:53:33.266Z,1007.36
2018-11-26T03:54:33.278Z,1007.36
2018-11-26T03:55:33.295Z,1007.40
2018-11-26T03:56:33.305Z,1007.39
2018-11-26T03:57:33.320Z,1007.38
2018-11-26T03:58:33.323Z,1007.45
2018-11-26T03:59:33.334Z,1007.41
2018-11-26T04:00:33.351Z,1007.44
2018-11-26T04:01:33.360Z,1007.42
2018-11-26T04:02:33.375Z,1007.47
2018-11-26T04:03:33.388Z,1007.46
2018-11-26T04:04:33.389Z,1007.47
2018-11-26T04:05:33.408Z,1007.49
2018-11-26T04:06:33.420Z,1007.42
2018-11-26T04:07:33.434Z,1007.46
2018-11-26T04:08:33.442Z,1007.47
2018-11-26T04:09:33.464Z,1007.52
2018-11-26T04:10:33.459Z,1007.49
2018-11-26T04:11:33.472Z,1007.49
2018-11-26T04:12:33.487Z,1007.50
2018-11-26T04:13:33.501Z,1007.52
2018-11-26T04:14:33.513Z,1007.51
2018-11-26T04:15:33.524Z,1007.54
2018-11-26T04:16:33.526Z,1007.59
2018-11-26T04:17:33.539Z,1007.56
2018-11-26T04:18:33.553Z,1007.53
2018-11-26T04:19:33.569Z,1007.56
2018-11-26T04:20:33.580Z,1007.54
2018-11-26T04:21:33.595Z,1007.52
2018-11-26T04:22:33.596Z,1007.57
2018-11-26T04:23:33.622Z,1007.59
2018-11-26T04:24:33.625Z,1007.65
2018-11-26T04:25:33.635Z,1007.60
2018-11-26T04:26:33.649Z,1007.64
2018-11-26T04:27:33.664Z,1007.65
2018-11-26T04:28:33.664Z,1007.65
2018-11-26T04:29:33.677Z,1007.69
2018-11-26T04:30:33.692Z,1007.64
2018-11-26T04:31:33.704Z,1007.59
2018-11-26T04:32:33.718Z,1007.57
2018-11-26T04:33:33.732Z,1007.63
2018-11-26T04:34:33.733Z,1007.60
2018-11-26T04:35:33.746Z,1007.59
2018-11-26T04:36:33.759Z,1007.58
2018-11-26T04:37:33.773Z,1007.63
2018-11-26T04:38:33.791Z,1007.62
2018-11-26T04:39:33.799Z,1007.64
2018-11-26T04:40:33.808Z,1007.66
2018-11-26T04:41:33.815Z,1007.65
2018-11-26T04:42:33.828Z,1007.68
2018-11-26T04:43:33.846Z,1007.65
2018-11-26T04:44:33.854Z,1007.60
2018-11-26T04:45:33.870Z,1007.57
2018-11-26T04:46:33.870Z,1007.57
2018-11-26T04:47:33.883Z,1007.60
2018-11-26T04:48:33.900Z,1007.60
2018-11-26T04:49:33.909Z,1007.57
2018-11-26T04:50:33.926Z,1007.55
2018-11-26T04:51:33.937Z,1007.58
2018-11-26T04:52:33.951Z,1007.50
2018-11-26T04:53:33.952Z,1007.50
2018-11-26T04:54:33.964Z,1007.48
2018-11-26T04:55:33.979Z,1007.50
2018-11-26T04:56:33.991Z,1007.46
2018-11-26T04:57:34.271Z,1007.46
2018-11-26T04:58:34.033Z,1007.48
2018-11-26T04:59:34.033Z,1007.47
2018-11-26T05:00:34.034Z,1007.46
2018-11-26T05:01:34.048Z,1007.47
2018-11-26T05:02:34.063Z,1007.45
2018-11-26T05:03:34.087Z,1007.47
2018-11-26T05:04:34.090Z,1007.48
2018-11-26T05:05:34.104Z,1007.46
2018-11-26T05:06:34.116Z,1007.47
2018-11-26T05:07:34.116Z,1007.45
2018-11-26T05:08:34.131Z,1007.44
2018-11-26T05:09:34.143Z,1007.48
2018-11-26T05:10:34.157Z,1007.52
2018-11-26T05:11:34.170Z,1007.52
2018-11-26T05:12:34.183Z,1007.50
2018-11-26T05:13:34.197Z,1007.54
2018-11-26T05:14:34.210Z,1007.53
2018-11-26T05:15:34.213Z,1007.55
2018-11-26T05:16:34.225Z,1007.49
2018-11-26T05:17:34.237Z,1007.53
2018-11-26T05:18:34.252Z,1007.51
2018-11-26T05:19:34.265Z,1007.49
2018-11-26T05:20:34.279Z,1007.45
2018-11-26T05:21:34.292Z,1007.44
2018-11-26T05:22:34.306Z,1007.47
2018-11-26T05:23:34.308Z,1007.49
2018-11-26T05:24:34.321Z,1007.52
2018-11-26T05:25:34.334Z,1007.49
2018-11-26T05:26:34.348Z,1007.55
2018-11-26T05:27:34.361Z,1007.57
2018-11-26T05:28:34.375Z,1007.57
2018-11-26T05:29:34.389Z,1007.58
2018-11-26T05:30:34.402Z,1007.57
2018-11-26T05:31:34.403Z,1007.56
2018-11-26T05:32:34.417Z,1007.52
2018-11-26T05:33:34.430Z,1007.56
2018-11-26T05:34:34.443Z,1007.54
2018-11-26T05:35:34.457Z,1007.55
2018-11-26T05:36:34.471Z,1007.51
2018-11-26T05:37:34.497Z,1007.56
2018-11-26T05:38:34.498Z,1007.50
2018-11-26T05:39:34.513Z,1007.49
2018-11-26T05:40:34.513Z,1007.52
2018-11-26T05:41:34.525Z,1007.48
2018-11-26T05:42:34.542Z,1007.51
2018-11-26T05:43:34.552Z,1007.49
2018-11-26T05:44:34.565Z,1007.55
2018-11-26T05:45:34.581Z,1007.53
2018-11-26T05:46:34.593Z,1007.53
2018-11-26T05:47:34.608Z,1007.53
2018-11-26T05:48:34.620Z,1007.47
2018-11-26T05:49:34.622Z,1007.47
2018-11-26T05:50:34.637Z,1007.47
2018-11-26T05:51:34.647Z,1007.45
2018-11-26T05:52:34.661Z,1007.49
2018-11-26T05:53:34.675Z,1007.43
2018-11-26T05:54:34.689Z,1007.49
2018-11-26T05:55:34.702Z,1007.50
2018-11-26T05:56:34.717Z,1007.48
2018-11-26T05:57:34.747Z,1007.50
2018-11-26T05:58:34.731Z,1007.46
2018-11-26T05:59:34.747Z,1007.40
2018-11-26T06:00:34.759Z,1007.43
2018-11-26T06:01:34.774Z,1007.46
2018-11-26T06:02:34.784Z,1007.40
2018-11-26T06:03:34.799Z,1007.44
2018-11-26T06:04:34.811Z,1007.39
2018-11-26T06:05:34.825Z,1007.37
2018-11-26T06:06:34.827Z,1007.42
2018-11-26T06:07:34.841Z,1007.44
2018-11-26T06:08:34.854Z,1007.42
2018-11-26T06:09:34.867Z,1007.43
2018-11-26T06:10:34.880Z,1007.46
2018-11-26T06:11:34.893Z,1007.46
2018-11-26T06:12:34.908Z,1007.49
2018-11-26T06:13:34.921Z,1007.51
2018-11-26T06:14:34.935Z,1007.49
2018-11-26T06:15:34.947Z,1007.45
2018-11-26T06:16:34.963Z,1007.50
2018-11-26T06:17:34.963Z,1007.53
2018-11-26T06:18:34.977Z,1007.50
2018-11-26T06:19:34.990Z,1007.49
2018-11-26T06:20:35.017Z,1007.51
2018-11-26T06:21:35.018Z,1007.52
2018-11-26T06:22:35.030Z,1007.48
2018-11-26T06:23:35.046Z,1007.49
2018-11-26T06:24:35.057Z,1007.57
2018-11-26T06:25:35.059Z,1007.53
2018-11-26T06:26:35.073Z,1007.51
2018-11-26T06:27:35.085Z,1007.52
2018-11-26T06:28:35.100Z,1007.52
2018-11-26T06:29:35.112Z,1007.53
2018-11-26T06:30:35.126Z,1007.52
2018-11-26T06:31:35.140Z,1007.57
2018-11-26T06:32:35.154Z,1007.58
2018-11-26T06:33:35.167Z,1007.55
2018-11-26T06:34:36.267Z,1007.58
2018-11-26T06:35:35.182Z,1007.62
2018-11-26T06:36:35.211Z,1007.65
2018-11-26T06:37:35.209Z,1007.64
2018-11-26T06:38:35.221Z,1007.66
2018-11-26T06:39:35.236Z,1007.60
2018-11-26T06:40:35.252Z,1007.66
2018-11-26T06:41:35.266Z,1007.70
2018-11-26T06:42:35.276Z,1007.70
2018-11-26T06:43:35.289Z,1007.71
2018-11-26T06:44:35.304Z,1007.68
2018-11-26T06:45:35.303Z,1007.74
2018-11-26T06:46:35.318Z,1007.69
2018-11-26T06:47:35.331Z,1007.72
2018-11-26T06:48:35.345Z,1007.67
2018-11-26T06:49:35.358Z,1007.73
2018-11-26T06:50:35.374Z,1007.68
2018-11-26T06:51:35.385Z,1007.73
2018-11-26T06:52:35.399Z,1007.76
2018-11-26T06:53:35.417Z,1007.79
2018-11-26T06:54:35.414Z,1007.80
2018-11-26T06:55:35.438Z,1007.82
2018-11-26T06:56:35.441Z,1007.79
2018-11-26T06:57:35.454Z,1007.79
2018-11-26T06:58:35.468Z,1007.82
2018-11-26T06:59:35.481Z,1007.88
2018-11-26T07:00:35.496Z,1007.83
2018-11-26T07:01:35.509Z,1007.88
2018-11-26T07:02:35.521Z,1007.87
2018-11-26T07:03:35.535Z,1007.89
2018-11-26T07:04:35.548Z,1007.95
2018-11-26T07:05:35.549Z,1007.93
2018-11-26T07:06:35.564Z,1007.94
2018-11-26T07:07:35.579Z,1007.96
2018-11-26T07:08:35.591Z,1007.98
2018-11-26T07:09:35.617Z,1008.00
2018-11-26T07:10:35.618Z,1007.98
2018-11-26T07:11:35.630Z,1007.94
2018-11-26T07:12:35.645Z,1007.95
2018-11-26T07:13:35.658Z,1007.96
2018-11-26T07:14:35.659Z,1007.96
2018-11-26T07:15:35.673Z,1007.93
2018-11-26T07:16:35.687Z,1007.95
2018-11-26T07:17:35.705Z,1007.94
2018-11-26T07:18:35.713Z,1007.91
2018-11-26T07:19:35.728Z,1007.93
2018-11-26T07:20:35.753Z,1007.93
2018-11-26T07:21:35.754Z,1007.93
2018-11-26T07:22:35.767Z,1007.97
2018-11-26T07:23:35.781Z,1007.94
2018-11-26T07:24:35.784Z,1007.95
2018-11-26T07:25:35.795Z,1007.96
2018-11-26T07:26:35.810Z,1007.97
2018-11-26T07:27:35.822Z,1007.98
2018-11-26T07:28:35.837Z,1008.00
2018-11-26T07:29:35.862Z,1007.97
2018-11-26T07:30:35.863Z,1007.97
2018-11-26T07:31:35.879Z,1007.99
2018-11-26T07:32:35.889Z,1007.97
2018-11-26T07:33:35.905Z,1008.04
2018-11-26T07:34:35.904Z,1008.02
2018-11-26T07:35:35.918Z,1008.02
2018-11-26T07:36:35.932Z,1007.98
2018-11-26T07:37:35.946Z,1008.03
2018-11-26T07:38:35.959Z,1008.06
2018-11-26T07:39:35.973Z,1008.02
2018-11-26T07:40:35.987Z,1007.99
2018-11-26T07:41:36.001Z,1008.07
2018-11-26T07:42:36.013Z,1008.15
2018-11-26T07:43:36.015Z,1008.11
2018-11-26T07:44:36.029Z,1008.15
2018-11-26T07:45:36.043Z,1008.17
2018-11-26T07:46:36.055Z,1008.18
2018-11-26T07:47:36.068Z,1008.15
2018-11-26T07:48:36.082Z,1008.18
2018-11-26T07:49:36.095Z,1008.13
2018-11-26T07:50:36.109Z,1008.14
2018-11-26T07:51:36.123Z,1008.08
2018-11-26T07:52:36.135Z,1008.12
2018-11-26T07:53:36.149Z,1008.15
2018-11-26T07:54:36.151Z,1008.11
2018-11-26T07:55:36.166Z,1008.09
2018-11-26T07:56:36.177Z,1008.09
2018-11-26T07:57:36.192Z,1008.09
2018-11-26T07:58:36.207Z,1008.09
2018-11-26T07:59:36.220Z,1008.09
2018-11-26T08:00:36.232Z,1008.07
2018-11-26T08:01:36.247Z,1008.09
2018-11-26T08:02:36.272Z,1008.07
2018-11-26T08:03:36.273Z,1008.07
2018-11-26T08:04:36.292Z,1008.05
2018-11-26T08:05:36.299Z,1008.11
2018-11-26T08:06:36.312Z,1008.17
2018-11-26T08:07:36.329Z,1008.15
2018-11-26T08:08:36.328Z,1008.18
2018-11-26T08:09:36.340Z,1008.19
2018-11-26T08:10:36.354Z,1008.19
2018-11-26T08:11:36.372Z,1008.18
2018-11-26T08:12:36.382Z,1008.17
2018-11-26T08:13:36.395Z,1008.21
2018-11-26T08:14:36.408Z,1008.22
2018-11-26T08:15:36.422Z,1008.17
2018-11-26T08:16:36.436Z,1008.15
2018-11-26T08:17:36.449Z,1008.21
2018-11-26T08:18:36.451Z,1008.20
2018-11-26T08:19:36.464Z,1008.17
2018-11-26T08:20:36.476Z,1008.18
2018-11-26T08:21:36.492Z,1008.18
2018-11-26T08:22:36.505Z,1008.22
2018-11-26T08:23:36.519Z,1008.17
2018-11-26T08:24:36.531Z,1008.22
2018-11-26T08:25:36.545Z,1008.18
2018-11-26T08:26:36.559Z,1008.25
2018-11-26T08:27:36.572Z,1008.25
2018-11-26T08:28:36.585Z,1008.22
2018-11-26T08:29:36.599Z,1008.24
2018-11-26T08:30:36.625Z,1008.22
2018-11-26T08:31:36.614Z,1008.20
2018-11-26T08:32:36.629Z,1008.23
2018-11-26T08:33:36.644Z,1008.26
2018-11-26T08:34:36.655Z,1008.26
2018-11-26T08:35:36.667Z,1008.32
2018-11-26T08:36:36.682Z,1008.31
2018-11-26T08:37:36.695Z,1008.29
2018-11-26T08:38:36.709Z,1008.31
2018-11-26T08:39:36.721Z,1008.35
2018-11-26T08:40:36.736Z,1008.29
2018-11-26T08:41:36.749Z,1008.33
2018-11-26T08:42:36.762Z,1008.36
2018-11-26T08:43:36.776Z,1008.29
2018-11-26T08:44:36.794Z,1008.30
2018-11-26T08:45:36.803Z,1008.32
2018-11-26T08:46:36.872Z,1008.30
2018-11-26T08:47:36.821Z,1008.35
2018-11-26T08:48:36.832Z,1008.33
2018-11-26T08:49:36.845Z,1008.38
2018-11-26T08:50:36.871Z,1008.35
2018-11-26T08:51:36.874Z,1008.30
2018-11-26T08:52:36.885Z,1008.34
2018-11-26T08:53:36.899Z,1008.31
2018-11-26T08:54:36.926Z,1008.33
2018-11-26T08:55:36.926Z,1008.31
2018-11-26T08:56:36.938Z,1008.32
2018-11-26T08:57:36.954Z,1008.36
2018-11-26T08:58:36.969Z,1008.33
2018-11-26T08:59:36.981Z,1008.40
2018-11-26T09:00:36.993Z,1008.36
2018-11-26T09:01:37.008Z,1008.35
2018-11-26T09:02:37.009Z,1008.35
2018-11-26T09:03:37.021Z,1008.32
2018-11-26T09:04:37.036Z,1008.39
2018-11-26T09:05:37.048Z,1008.35
2018-11-26T09:06:37.063Z,1008.34
2018-11-26T09:07:37.079Z,1008.35
2018-11-26T09:08:37.090Z,1008.39
2018-11-26T09:09:37.102Z,1008.43
2018-11-26T09:10:37.118Z,1008.41
2018-11-26T09:11:37.129Z,1008.38
2018-11-26T09:12:37.148Z,1008.40
2018-11-26T09:13:37.175Z,1008.45
2018-11-26T09:14:37.171Z,1008.42
2018-11-26T09:15:37.183Z,1008.40
2018-11-26T09:16:37.198Z,1008.38
2018-11-26T09:17:37.213Z,1008.39
2018-11-26T09:18:37.228Z,1008.40
2018-11-26T09:19:37.239Z,1008.41
2018-11-26T09:20:37.255Z,1008.40
2018-11-26T09:21:37.278Z,1008.39
2018-11-26T09:22:37.283Z,1008.39
2018-11-26T09:23:37.292Z,1008.42
2018-11-26T09:24:37.306Z,1008.40
2018-11-26T09:25:37.758Z,1008.36
2018-11-26T09:26:37.333Z,1008.34
2018-11-26T09:27:37.347Z,1008.33
2018-11-26T09:28:37.425Z,1008.32
2018-11-26T09:29:37.373Z,1008.38
2018-11-26T09:30:37.374Z,1008.37
2018-11-26T09:31:37.389Z,1008.29
2018-11-26T09:32:37.402Z,1008.27
2018-11-26T09:33:37.419Z,1008.29
2018-11-26T09:34:37.429Z,1008.30
2018-11-26T09:35:37.442Z,1008.30
2018-11-26T09:36:37.456Z,1008.28
2018-11-26T09:37:37.470Z,1008.32
2018-11-26T09:38:37.483Z,1008.30
2018-11-26T09:39:37.497Z,1008.31
2018-11-26T09:40:37.509Z,1008.32
2018-11-26T09:41:37.524Z,1008.30
2018-11-26T09:42:37.537Z,1008.36
2018-11-26T09:43:37.551Z,1008.28
2018-11-26T09:44:37.568Z,1008.31
2018-11-26T09:45:40.524Z,1008.25
2018-11-26T09:46:37.591Z,1008.29
2018-11-26T09:47:37.605Z,1008.31
2018-11-26T09:48:37.618Z,1008.24
2018-11-26T09:49:37.634Z,1008.28
2018-11-26T09:50:37.646Z,1008.26
2018-11-26T09:51:42.285Z,1008.24
2018-11-26T09:52:37.674Z,1008.24
2018-11-26T09:53:37.686Z,1008.22
2018-11-26T09:54:37.700Z,1008.21
2018-11-26T09:55:37.714Z,1008.15
2018-11-26T09:56:37.725Z,1008.17
2018-11-26T09:57:37.740Z,1008.16
2018-11-26T09:58:37.753Z,1008.12
2018-11-26T09:59:37.768Z,1008.16
2018-11-26T10:00:37.779Z,1008.16
2018-11-26T10:01:37.798Z,1008.19
2018-11-26T10:02:37.807Z,1008.18
2018-11-26T10:03:37.824Z,1008.16
2018-11-26T10:04:37.838Z,1008.18
2018-11-26T10:05:37.853Z,1008.18
2018-11-26T10:06:37.862Z,1008.17
2018-11-26T10:07:37.876Z,1008.18
2018-11-26T10:08:37.894Z,1008.15
2018-11-26T10:09:37.903Z,1008.15
2018-11-26T10:10:37.921Z,1008.13
2018-11-26T10:11:37.930Z,1008.12
2018-11-26T10:12:37.956Z,1008.15
2018-11-26T10:13:37.957Z,1008.18
2018-11-26T10:14:38.002Z,1008.13
2018-11-26T10:15:37.983Z,1008.14
2018-11-26T10:16:37.999Z,1008.17
2018-11-26T10:17:38.011Z,1008.16
2018-11-26T10:18:38.024Z,1008.19
2018-11-26T10:19:38.040Z,1008.25
2018-11-26T10:20:38.066Z,1008.25
2018-11-26T10:21:38.065Z,1008.22
2018-11-26T10:22:38.078Z,1008.25
2018-11-26T10:23:38.092Z,1008.28
2018-11-26T10:24:38.104Z,1008.23
2018-11-26T10:25:38.120Z,1008.22
2018-11-26T10:26:38.135Z,1008.24
2018-11-26T10:27:38.146Z,1008.23
2018-11-26T10:28:38.159Z,1008.25
2018-11-26T10:29:38.174Z,1008.21
2018-11-26T10:30:38.186Z,1008.19
2018-11-26T10:31:38.201Z,1008.24
2018-11-26T10:32:38.213Z,1008.21
2018-11-26T10:33:38.229Z,1008.21
2018-11-26T10:34:38.243Z,1008.26
2018-11-26T10:35:38.255Z,1008.21
2018-11-26T10:36:38.280Z,1008.23
2018-11-26T10:37:38.282Z,1008.29
2018-11-26T10:38:38.296Z,1008.29
2018-11-26T10:39:38.309Z,1008.27
2018-11-26T10:40:38.322Z,1008.31
2018-11-26T10:41:38.335Z,1008.26
2018-11-26T10:42:38.348Z,1008.26
2018-11-26T10:43:38.362Z,1008.30
2018-11-26T10:44:38.389Z,1008.28
2018-11-26T10:45:38.390Z,1008.29
2018-11-26T10:46:38.403Z,1008.27
2018-11-26T10:47:38.418Z,1008.25
2018-11-26T10:48:38.431Z,1008.23
2018-11-26T10:49:38.444Z,1008.26
2018-11-26T10:50:38.457Z,1008.29
2018-11-26T10:51:38.483Z,1008.25
2018-11-26T10:52:38.484Z,1008.25
2018-11-26T10:53:38.500Z,1008.26
2018-11-26T10:54:38.514Z,1008.26
2018-11-26T10:55:38.524Z,1008.27
2018-11-26T10:56:38.539Z,1008.25
2018-11-26T10:57:38.552Z,1008.28
2018-11-26T10:58:38.629Z,1008.25
2018-11-26T10:59:38.581Z,1008.24
2018-11-26T11:00:38.601Z,1008.20
2018-11-26T11:01:38.620Z,1008.20
2018-11-26T11:02:38.622Z,1008.21
2018-11-26T11:03:38.633Z,1008.18
2018-11-26T11:04:38.661Z,1008.21
2018-11-26T11:05:38.672Z,1008.22
2018-11-26T11:06:38.674Z,1008.23
2018-11-26T11:07:38.699Z,1008.17
2018-11-26T11:08:38.713Z,1008.17
2018-11-26T11:09:38.726Z,1008.21
2018-11-26T11:10:38.743Z,1008.25
2018-11-26T11:11:38.771Z,1008.22
2018-11-26T11:12:38.767Z,1008.23
2018-11-26T11:13:38.780Z,1008.22
2018-11-26T11:14:38.796Z,1008.18
2018-11-26T11:15:38.808Z,1008.23
2018-11-26T11:16:38.822Z,1008.22
2018-11-26T11:17:38.835Z,1008.21
2018-11-26T11:18:38.849Z,1008.18
2018-11-26T11:19:39.598Z,1008.27
2018-11-26T11:20:38.876Z,1008.23
2018-11-26T11:21:38.893Z,1008.23
2018-11-26T11:22:38.903Z,1008.28
2018-11-26T11:23:38.915Z,1008.28
2018-11-26T11:24:38.931Z,1008.26
2018-11-26T11:25:38.943Z,1008.29
2018-11-26T11:26:38.956Z,1008.27
2018-11-26T11:27:38.969Z,1008.25
2018-11-26T11:28:38.985Z,1008.24
2018-11-26T11:29:38.997Z,1008.21
2018-11-26T11:30:39.010Z,1008.27
2018-11-26T11:31:39.024Z,1008.20
2018-11-26T11:32:39.038Z,1008.23
2018-11-26T11:33:39.051Z,1008.25
2018-11-26T11:34:39.065Z,1008.22
2018-11-26T11:35:39.079Z,1008.16
2018-11-26T11:36:39.092Z,1008.20
2018-11-26T11:37:39.105Z,1008.20
2018-11-26T11:38:39.119Z,1008.18
2018-11-26T11:39:39.132Z,1008.14
2018-11-26T11:40:39.146Z,1008.13
2018-11-26T11:41:39.160Z,1008.12
2018-11-26T11:42:39.174Z,1008.15
2018-11-26T11:43:39.186Z,1008.05
2018-11-26T11:44:39.200Z,1008.11
2018-11-26T11:45:39.213Z,1008.08
2018-11-26T11:46:39.227Z,1008.08
2018-11-26T11:47:39.239Z,1008.11
2018-11-26T11:48:39.255Z,1008.10
2018-11-26T11:49:39.267Z,1008.16
2018-11-26T11:50:39.280Z,1008.13
2018-11-26T11:51:39.294Z,1008.14
2018-11-26T11:52:39.309Z,1008.17
2018-11-26T11:53:39.323Z,1008.20
2018-11-26T11:54:39.336Z,1008.16
2018-11-26T11:55:39.349Z,1008.12
2018-11-26T11:56:39.363Z,1008.16
2018-11-26T11:57:39.377Z,1008.18
2018-11-26T11:58:39.388Z,1008.18
2018-11-26T11:59:39.402Z,1008.21
2018-11-26T12:00:39.416Z,1008.17
2018-11-26T12:01:39.429Z,1008.14
2018-11-26T12:02:39.444Z,1008.21
2018-11-26T12:03:39.456Z,1008.16
2018-11-26T12:04:39.470Z,1008.15
2018-11-26T12:05:39.483Z,1008.15